createdAt,value
2023-08-23T00:00:47.913Z,76.80
2023-08-23T00:03:20.218Z,77.00
2023-08-23T00:05:52.506Z,77.10
2023-08-23T00:08:24.980Z,77.10
2023-08-23T00:10:57.295Z,77.10
2023-08-23T00:13:32.056Z,77.30
2023-08-23T00:16:04.495Z,77.60
2023-08-23T00:18:36.749Z,78.50
2023-08-23T00:21:09.058Z,78.30
2023-08-23T00:23:41.281Z,78.50
2023-08-23T00:26:13.861Z,78.50
2023-08-23T00:28:48.992Z,78.60
2023-08-23T00:31:21.306Z,78.90
2023-08-23T00:33:53.615Z,79.20
2023-08-23T00:36:26.142Z,79.30
2023-08-23T00:38:58.626Z,79.50
2023-08-23T00:41:30.941Z,79.50
2023-08-23T00:44:05.928Z,79.50
2023-08-23T00:46:38.221Z,79.90
2023-08-23T00:49:10.697Z,80.60
2023-08-23T00:51:43.443Z,80.40
2023-08-23T00:54:16.175Z,80.80
2023-08-23T00:56:49.292Z,80.90
2023-08-23T00:59:24.145Z,81.00
2023-08-23T01:01:57.150Z,81.00
2023-08-23T01:04:29.710Z,81.20
2023-08-23T01:07:10.788Z,81.30
2023-08-23T01:09:52.510Z,81.50
2023-08-23T01:12:30.666Z,81.70
2023-08-23T01:15:09.237Z,82.00
2023-08-23T01:17:44.367Z,82.20
2023-08-23T01:20:17.894Z,82.40
2023-08-23T01:22:54.868Z,82.40
2023-08-23T01:25:29.679Z,82.40
2023-08-23T01:28:02.101Z,82.70
2023-08-23T01:30:36.392Z,83.10
2023-08-23T01:33:14.395Z,83.30
2023-08-23T01:35:54.744Z,83.40
2023-08-23T01:38:30.235Z,83.50
2023-08-23T01:41:06.154Z,83.50
2023-08-23T01:43:38.587Z,83.70
2023-08-23T01:46:10.918Z,84.00
2023-08-23T01:48:43.326Z,84.40
2023-08-23T01:51:15.484Z,84.50
2023-08-23T01:53:47.733Z,84.80
2023-08-23T01:56:22.763Z,85.40
2023-08-23T01:58:55.035Z,86.00
2023-08-23T02:01:27.379Z,86.50
2023-08-23T02:03:59.647Z,86.90
2023-08-23T02:06:31.964Z,87.20
2023-08-23T02:09:04.423Z,87.40
2023-08-23T02:11:39.258Z,87.50
2023-08-23T02:14:11.542Z,87.30
2023-08-23T02:16:43.758Z,87.50
2023-08-23T02:19:16.273Z,87.70
2023-08-23T02:21:48.529Z,87.80
2023-08-23T02:24:20.828Z,87.80
2023-08-23T02:26:55.699Z,88.00
2023-08-23T02:29:27.948Z,88.30
2023-08-23T02:32:00.183Z,88.70
2023-08-23T02:34:32.486Z,89.80
2023-08-23T02:37:04.882Z,90.00
2023-08-23T02:39:37.144Z,90.30
2023-08-23T02:42:30.039Z,90.50
2023-08-23T02:45:02.220Z,90.70
2023-08-23T02:47:34.390Z,90.70
2023-08-23T02:50:07.579Z,90.70
2023-08-23T02:52:39.805Z,90.80
2023-08-23T02:55:11.959Z,90.80
2023-08-23T02:57:46.972Z,91.10
2023-08-23T03:00:19.682Z,91.10
2023-08-23T03:02:51.937Z,91.20
2023-08-23T03:05:24.150Z,91.40
2023-08-23T03:07:56.368Z,91.60
2023-08-23T03:10:31.077Z,91.80
2023-08-23T03:13:05.960Z,92.00
2023-08-23T03:15:38.120Z,92.20
2023-08-23T03:18:10.490Z,92.20
2023-08-23T03:20:45.187Z,92.10
2023-08-23T03:23:17.452Z,92.40
2023-08-23T03:25:50.869Z,92.70
2023-08-23T03:28:25.891Z,93.20
2023-08-23T03:31:03.522Z,93.50
2023-08-23T03:33:35.761Z,93.50
2023-08-23T03:36:08.294Z,93.60
2023-08-23T03:38:40.570Z,93.80
2023-08-23T03:41:16.328Z,94.20
2023-08-23T03:43:51.111Z,94.40
2023-08-23T03:46:24.443Z,94.60
2023-08-23T03:48:57.557Z,94.70
2023-08-23T03:51:29.710Z,94.90
2023-08-23T03:54:01.869Z,95.00
2023-08-23T03:56:34.014Z,95.20
2023-08-23T03:59:08.883Z,95.40
2023-08-23T04:01:41.122Z,95.50
2023-08-23T04:04:13.475Z,95.40
2023-08-23T04:06:45.824Z,95.50
2023-08-23T04:09:18.602Z,95.70
2023-08-23T04:11:50.766Z,95.80
2023-08-23T04:14:25.686Z,95.80
2023-08-23T04:16:57.960Z,95.90
2023-08-23T04:19:30.277Z,96.50
2023-08-23T04:22:02.510Z,96.80
2023-08-23T04:24:36.974Z,96.90
2023-08-23T04:27:09.560Z,97.00
2023-08-23T04:29:44.357Z,96.90
2023-08-23T04:32:16.549Z,96.80
2023-08-23T04:34:48.813Z,96.80
2023-08-23T04:37:21.092Z,96.70
2023-08-23T04:39:53.269Z,96.70
2023-08-23T04:42:25.388Z,96.90
2023-08-23T04:45:02.961Z,97.10
2023-08-23T04:47:35.243Z,97.30
2023-08-23T04:50:08.647Z,97.40
2023-08-23T04:52:41.147Z,97.50
2023-08-23T04:55:13.628Z,97.70
2023-08-23T04:57:46.189Z,97.80
2023-08-23T05:00:21.810Z,97.70
2023-08-23T05:02:54.017Z,97.60
2023-08-23T05:05:26.334Z,97.60
2023-08-23T05:07:58.812Z,97.60
2023-08-23T05:10:31.060Z,97.60
2023-08-23T05:13:03.329Z,97.90
2023-08-23T05:15:38.374Z,98.20
2023-08-23T05:18:10.698Z,98.50
2023-08-23T05:20:42.939Z,98.80
2023-08-23T05:23:15.149Z,99.00
2023-08-23T05:25:47.364Z,99.20
2023-08-23T05:28:19.914Z,99.40
2023-08-23T05:30:54.648Z,99.50
2023-08-23T05:33:26.853Z,99.80
2023-08-23T05:35:59.047Z,99.90
2023-08-23T05:38:33.724Z,99.90
2023-08-23T05:41:05.981Z,99.90
2023-08-23T05:43:38.145Z,99.90
2023-08-23T05:46:12.990Z,99.90
2023-08-23T05:48:46.119Z,99.90
2023-08-23T05:51:18.612Z,99.90
2023-08-23T05:53:50.808Z,99.90
2023-08-23T05:56:25.461Z,99.90
2023-08-23T05:58:57.747Z,99.90
2023-08-23T06:01:32.657Z,99.90
2023-08-23T06:04:05.309Z,99.90
2023-08-23T06:06:37.499Z,99.90
2023-08-23T06:09:09.715Z,99.90
2023-08-23T06:11:41.891Z,99.90
2023-08-23T06:14:19.883Z,99.90
2023-08-23T06:16:54.829Z,99.90
2023-08-23T06:19:27.114Z,99.90
2023-08-23T06:21:59.431Z,99.90
2023-08-23T06:24:31.681Z,99.90
2023-08-23T06:27:04.142Z,99.90
2023-08-23T06:29:39.124Z,99.90
2023-08-23T06:32:13.969Z,99.90
2023-08-23T06:34:46.084Z,99.90
2023-08-23T06:37:18.316Z,99.90
2023-08-23T06:39:51.042Z,99.90
2023-08-23T06:42:23.262Z,99.90
2023-08-23T06:44:57.820Z,99.90
2023-08-23T06:47:33.020Z,99.90
2023-08-23T06:50:09.762Z,99.90
2023-08-23T06:52:44.566Z,99.90
2023-08-23T06:55:16.955Z,99.90
2023-08-23T06:57:51.239Z,99.90
2023-08-23T07:00:24.868Z,99.50
2023-08-23T07:02:59.757Z,99.20
2023-08-23T07:05:34.482Z,98.90
2023-08-23T07:08:07.134Z,98.60
2023-08-23T07:10:39.489Z,98.20
2023-08-23T07:13:11.763Z,97.90
2023-08-23T07:15:43.998Z,97.60
2023-08-23T07:18:18.750Z,97.30
2023-08-23T07:20:50.922Z,97.10
2023-08-23T07:23:23.039Z,96.80
2023-08-23T07:25:55.210Z,96.60
2023-08-23T07:28:28.955Z,96.40
2023-08-23T07:31:01.240Z,96.10
2023-08-23T07:33:36.095Z,95.50
2023-08-23T07:36:09.750Z,95.30
2023-08-23T07:38:41.946Z,95.20
2023-08-23T07:41:14.120Z,95.00
2023-08-23T07:43:46.323Z,94.80
2023-08-23T07:46:18.577Z,94.60
2023-08-23T07:48:53.428Z,94.10
2023-08-23T07:51:25.611Z,93.90
2023-08-23T07:53:57.777Z,93.70
2023-08-23T07:56:30.099Z,93.40
2023-08-23T07:59:02.624Z,93.00
2023-08-23T08:01:34.868Z,92.50
2023-08-23T08:04:11.074Z,92.50
2023-08-23T08:06:43.405Z,92.40
2023-08-23T08:09:15.615Z,92.20
2023-08-23T08:11:47.788Z,91.80
2023-08-23T08:14:20.252Z,91.80
2023-08-23T08:16:52.476Z,91.40
2023-08-23T08:19:27.275Z,90.70
2023-08-23T08:21:59.352Z,90.30
2023-08-23T08:24:31.481Z,90.10
2023-08-23T08:27:03.774Z,89.60
2023-08-23T08:29:36.014Z,89.00
2023-08-23T08:32:08.146Z,88.60
2023-08-23T08:34:43.121Z,87.50
2023-08-23T08:37:16.618Z,87.20
2023-08-23T08:39:48.773Z,87.10
2023-08-23T08:42:21.203Z,87.00
2023-08-23T08:44:53.794Z,86.50
2023-08-23T08:47:26.041Z,86.10
2023-08-23T08:50:01.120Z,85.10
2023-08-23T08:52:33.430Z,84.40
2023-08-23T08:55:07.772Z,83.90
2023-08-23T08:57:40.876Z,82.70
2023-08-23T09:00:14.319Z,82.10
2023-08-23T09:02:47.002Z,81.40
2023-08-23T09:05:22.661Z,80.80
2023-08-23T09:07:58.242Z,80.30
2023-08-23T09:10:30.564Z,79.60
2023-08-23T09:13:02.828Z,78.90
2023-08-23T09:15:35.129Z,78.90
2023-08-23T09:18:07.533Z,78.70
2023-08-23T09:20:43.557Z,78.50
2023-08-23T09:23:16.315Z,77.30
2023-08-23T09:25:49.696Z,76.90
2023-08-23T09:28:23.424Z,76.80
2023-08-23T09:30:55.975Z,76.50
2023-08-23T09:33:28.924Z,76.70
2023-08-23T09:36:03.881Z,76.70
2023-08-23T09:38:36.043Z,76.50
2023-08-23T09:41:08.391Z,75.80
2023-08-23T09:43:41.285Z,73.60
2023-08-23T09:46:15.642Z,72.80
2023-08-23T09:48:48.885Z,71.80
2023-08-23T09:51:25.915Z,71.40
2023-08-23T09:54:01.088Z,71.20
2023-08-23T09:56:33.345Z,71.10
2023-08-23T09:59:05.773Z,69.50
2023-08-23T10:01:38.219Z,69.60
2023-08-23T10:04:10.489Z,69.30
2023-08-23T10:06:47.408Z,69.10
2023-08-23T10:09:19.839Z,68.80
2023-08-23T10:11:55.591Z,68.80
2023-08-23T10:14:29.799Z,68.80
2023-08-23T10:17:03.917Z,68.80
2023-08-23T10:19:36.300Z,67.70
2023-08-23T10:22:14.158Z,65.70
2023-08-23T10:24:48.410Z,65.00
2023-08-23T10:27:25.213Z,64.60
2023-08-23T10:30:05.528Z,65.00
2023-08-23T10:32:49.369Z,65.10
2023-08-23T10:35:27.925Z,65.30
2023-08-23T10:38:04.430Z,65.50
2023-08-23T10:40:38.295Z,64.70
2023-08-23T10:43:12.748Z,65.00
2023-08-23T10:45:52.079Z,65.00
2023-08-23T10:48:24.977Z,64.20
2023-08-23T10:50:57.386Z,64.40
2023-08-23T10:53:32.423Z,64.70
2023-08-23T10:56:05.067Z,64.50
2023-08-23T10:58:38.915Z,64.00
2023-08-23T11:01:11.996Z,64.00
2023-08-23T11:03:44.715Z,63.70
2023-08-23T11:06:16.913Z,62.80
2023-08-23T11:08:53.072Z,62.00
2023-08-23T11:11:28.945Z,61.60
2023-08-23T11:14:01.202Z,61.60
2023-08-23T11:16:33.449Z,62.10
2023-08-23T11:19:07.268Z,62.00
2023-08-23T11:21:40.513Z,62.00
2023-08-23T11:24:16.723Z,62.10
2023-08-23T11:26:48.905Z,61.90
2023-08-23T11:29:21.143Z,61.50
2023-08-23T11:31:55.298Z,61.40
2023-08-23T11:34:27.672Z,60.80
2023-08-23T11:37:08.936Z,60.90
2023-08-23T11:39:43.930Z,60.60
2023-08-23T11:42:18.899Z,60.40
2023-08-23T11:44:54.104Z,60.00
2023-08-23T11:47:26.573Z,58.60
2023-08-23T11:49:59.025Z,58.20
2023-08-23T11:52:32.076Z,57.10
2023-08-23T11:55:07.921Z,56.40
2023-08-23T11:57:40.132Z,56.30
2023-08-23T12:00:13.422Z,55.80
2023-08-23T12:02:45.628Z,55.80
2023-08-23T12:05:17.947Z,55.00
2023-08-23T12:07:50.408Z,53.20
2023-08-23T12:10:28.128Z,52.30
2023-08-23T12:13:00.294Z,50.80
2023-08-23T12:15:32.832Z,50.60
2023-08-23T12:18:05.349Z,50.60
2023-08-23T12:20:37.631Z,48.50
2023-08-23T12:23:09.733Z,47.20
2023-08-23T12:25:44.542Z,47.50
2023-08-23T12:28:17.445Z,46.80
2023-08-23T12:30:49.721Z,46.30
2023-08-23T12:33:21.858Z,46.10
2023-08-23T12:35:54.262Z,45.50
2023-08-23T12:38:26.434Z,45.50
2023-08-23T12:41:01.479Z,45.30
2023-08-23T12:43:35.299Z,44.50
2023-08-23T12:46:07.607Z,44.20
2023-08-23T12:48:39.763Z,43.60
2023-08-23T12:51:12.122Z,43.90
2023-08-23T12:53:44.325Z,43.90
2023-08-23T12:56:19.122Z,42.90
2023-08-23T12:58:51.274Z,42.80
2023-08-23T13:01:23.690Z,43.10
2023-08-23T13:03:55.955Z,42.70
2023-08-23T13:06:28.122Z,42.30
2023-08-23T13:09:00.345Z,41.50
2023-08-23T13:11:35.266Z,41.30
2023-08-23T13:14:07.550Z,41.70
2023-08-23T13:16:39.731Z,41.80
2023-08-23T13:19:11.931Z,40.90
2023-08-23T13:21:44.356Z,41.20
2023-08-23T13:24:20.602Z,41.60
2023-08-23T13:26:55.395Z,41.80
2023-08-23T13:29:27.641Z,41.60
2023-08-23T13:32:00.087Z,41.50
2023-08-23T13:34:33.272Z,41.50
2023-08-23T13:37:08.977Z,41.30
2023-08-23T13:39:41.147Z,41.60
2023-08-23T13:42:15.935Z,41.40
2023-08-23T13:44:48.114Z,41.70
2023-08-23T13:47:20.225Z,41.60
2023-08-23T13:49:53.746Z,40.20
2023-08-23T13:52:25.943Z,40.50
2023-08-23T13:54:58.095Z,40.70
2023-08-23T13:57:33.539Z,41.30
2023-08-23T14:00:09.559Z,40.90
2023-08-23T14:02:41.799Z,41.20
2023-08-23T14:05:14.134Z,41.10
2023-08-23T14:07:46.662Z,41.70
2023-08-23T14:10:19.388Z,42.00
2023-08-23T14:12:54.112Z,41.80
2023-08-23T14:15:26.286Z,41.00
2023-08-23T14:17:58.435Z,41.30
2023-08-23T14:20:30.655Z,41.00
2023-08-23T14:23:03.047Z,41.20
2023-08-23T14:25:36.976Z,41.90
2023-08-23T14:28:12.872Z,42.10
2023-08-23T14:30:45.706Z,42.60
2023-08-23T14:33:18.117Z,43.00
2023-08-23T14:35:50.362Z,43.20
2023-08-23T14:38:22.635Z,43.20
2023-08-23T14:40:56.873Z,43.00
2023-08-23T14:43:32.094Z,43.30
2023-08-23T14:46:04.437Z,43.20
2023-08-23T14:48:38.034Z,43.60
2023-08-23T14:51:10.217Z,43.70
2023-08-23T14:53:43.218Z,44.20
2023-08-23T14:56:19.368Z,44.20
2023-08-23T14:58:54.268Z,44.50
2023-08-23T15:01:26.429Z,44.90
2023-08-23T15:03:58.681Z,45.10
2023-08-23T15:06:31.605Z,45.40
2023-08-23T15:09:05.305Z,45.50
2023-08-23T15:11:37.512Z,45.40
2023-08-23T15:14:12.654Z,45.50
2023-08-23T15:16:47.050Z,44.90
2023-08-23T15:19:21.600Z,45.30
2023-08-23T15:21:54.776Z,45.40
2023-08-23T15:24:28.491Z,45.30
2023-08-23T15:27:00.937Z,45.40
2023-08-23T15:29:41.672Z,45.60
2023-08-23T15:32:17.168Z,45.90
2023-08-23T15:34:51.540Z,46.10
2023-08-23T15:37:24.921Z,46.40
2023-08-23T15:39:57.104Z,46.20
2023-08-23T15:42:29.227Z,46.30
2023-08-23T15:45:05.728Z,46.40
2023-08-23T15:47:37.836Z,46.60
2023-08-23T15:50:11.226Z,46.70
2023-08-23T15:52:43.348Z,46.70
2023-08-23T15:55:15.832Z,46.80
2023-08-23T15:57:49.284Z,47.00
2023-08-23T16:00:24.525Z,47.00
2023-08-23T16:02:57.148Z,46.80
2023-08-23T16:05:30.185Z,46.60
2023-08-23T16:08:02.859Z,47.00
2023-08-23T16:10:35.219Z,47.10
2023-08-23T16:13:07.467Z,46.70
2023-08-23T16:15:43.132Z,46.40
2023-08-23T16:18:15.412Z,46.60
2023-08-23T16:20:48.484Z,46.70
2023-08-23T16:23:20.662Z,46.80
2023-08-23T16:25:54.176Z,47.00
2023-08-23T16:28:26.378Z,47.20
2023-08-23T16:31:01.204Z,47.10
2023-08-23T16:33:33.432Z,47.10
2023-08-23T16:36:05.946Z,47.10
2023-08-23T16:38:38.158Z,47.00
2023-08-23T16:41:10.419Z,47.00
2023-08-23T16:43:42.587Z,46.90
2023-08-23T16:46:17.391Z,46.80
2023-08-23T16:48:50.737Z,46.90
2023-08-23T16:51:22.906Z,46.90
2023-08-23T16:53:55.287Z,46.90
2023-08-23T16:56:28.838Z,46.90
2023-08-23T16:59:01.031Z,47.00
2023-08-23T17:01:35.997Z,47.00
2023-08-23T17:04:08.213Z,47.20
2023-08-23T17:06:40.396Z,47.40
2023-08-23T17:09:12.645Z,47.50
2023-08-23T17:11:45.422Z,47.70
2023-08-23T17:14:17.946Z,47.80
2023-08-23T17:16:52.768Z,48.00
2023-08-23T17:19:24.979Z,48.20
2023-08-23T17:21:57.219Z,48.40
2023-08-23T17:24:29.396Z,48.60
2023-08-23T17:27:02.409Z,48.90
2023-08-23T17:29:34.597Z,49.00
2023-08-23T17:32:09.596Z,49.20
2023-08-23T17:34:42.630Z,49.30
2023-08-23T17:37:14.912Z,49.30
2023-08-23T17:39:48.695Z,49.50
2023-08-23T17:42:20.905Z,49.50
2023-08-23T17:44:54.227Z,49.70
2023-08-23T17:47:29.115Z,49.80
2023-08-23T17:50:01.382Z,50.00
2023-08-23T17:52:33.956Z,50.10
2023-08-23T17:55:07.212Z,50.30
2023-08-23T17:57:39.409Z,50.60
2023-08-23T18:00:12.888Z,50.70
2023-08-23T18:02:48.228Z,51.40
2023-08-23T18:05:21.095Z,51.20
2023-08-23T18:07:53.379Z,51.40
2023-08-23T18:10:25.689Z,51.50
2023-08-23T18:12:57.932Z,51.70
2023-08-23T18:15:30.302Z,52.00
2023-08-23T18:18:05.250Z,52.20
2023-08-23T18:20:37.465Z,52.40
2023-08-23T18:23:10.074Z,52.70
2023-08-23T18:25:42.486Z,52.90
2023-08-23T18:28:15.001Z,53.10
2023-08-23T18:30:48.563Z,53.10
2023-08-23T18:33:27.051Z,53.20
2023-08-23T18:36:00.300Z,53.30
2023-08-23T18:38:32.548Z,53.40
2023-08-23T18:41:04.975Z,53.70
2023-08-23T18:43:37.507Z,53.90
2023-08-23T18:46:10.150Z,54.20
2023-08-23T18:48:44.989Z,54.50
2023-08-23T18:51:17.178Z,54.80
2023-08-23T18:53:49.364Z,55.10
2023-08-23T18:56:21.540Z,55.40
2023-08-23T18:58:56.844Z,55.70
2023-08-23T19:01:29.760Z,55.90
2023-08-23T19:04:05.087Z,56.00
2023-08-23T19:06:37.467Z,56.20
2023-08-23T19:09:09.711Z,56.30
2023-08-23T19:11:41.925Z,56.60
2023-08-23T19:14:14.187Z,57.10
2023-08-23T19:16:46.898Z,57.80
2023-08-23T19:19:21.918Z,58.40
2023-08-23T19:21:57.283Z,59.30
2023-08-23T19:24:32.763Z,59.60
2023-08-23T19:27:05.178Z,59.90
2023-08-23T19:29:37.444Z,60.10
2023-08-23T19:32:12.219Z,60.40
2023-08-23T19:34:46.970Z,60.90
2023-08-23T19:37:19.147Z,61.10
2023-08-23T19:39:51.665Z,61.30
2023-08-23T19:42:26.451Z,61.50
2023-08-23T19:45:00.687Z,61.80
2023-08-23T19:47:34.910Z,62.00
2023-08-23T19:50:10.637Z,62.30
2023-08-23T19:52:43.375Z,62.60
2023-08-23T19:55:15.877Z,62.80
2023-08-23T19:57:48.340Z,62.90
2023-08-23T20:00:20.818Z,63.00
2023-08-23T20:02:53.105Z,63.20
2023-08-23T20:05:28.243Z,63.20
2023-08-23T20:08:02.243Z,63.30
2023-08-23T20:10:34.588Z,63.50
2023-08-23T20:13:06.736Z,63.70
2023-08-23T20:15:44.675Z,63.90
2023-08-23T20:18:17.690Z,64.00
2023-08-23T20:20:52.580Z,64.10
2023-08-23T20:23:25.744Z,64.30
2023-08-23T20:25:59.990Z,64.50
2023-08-23T20:28:32.264Z,64.50
2023-08-23T20:31:04.558Z,64.70
2023-08-23T20:33:36.834Z,64.80
2023-08-23T20:36:11.689Z,64.90
2023-08-23T20:38:43.996Z,64.90
2023-08-23T20:41:16.122Z,64.90
2023-08-23T20:43:49.227Z,64.80
2023-08-23T20:46:21.342Z,64.80
2023-08-23T20:48:53.490Z,65.00
2023-08-23T20:51:29.485Z,65.40
2023-08-23T20:54:01.716Z,65.40
2023-08-23T20:56:33.861Z,65.40
2023-08-23T20:59:06.037Z,65.50
2023-08-23T21:01:38.495Z,65.60
2023-08-23T21:04:10.746Z,65.80
2023-08-23T21:06:45.764Z,65.80
2023-08-23T21:09:17.967Z,65.70
2023-08-23T21:11:50.379Z,65.80
2023-08-23T21:14:22.573Z,65.90
2023-08-23T21:16:54.908Z,66.00
2023-08-23T21:19:27.077Z,66.00
2023-08-23T21:22:02.198Z,66.10
2023-08-23T21:24:34.448Z,66.40
2023-08-23T21:27:06.693Z,66.80
2023-08-23T21:29:38.893Z,67.10
2023-08-23T21:32:11.125Z,67.90
2023-08-23T21:34:43.456Z,67.70
2023-08-23T21:37:18.253Z,67.90
2023-08-23T21:39:50.516Z,68.00
2023-08-23T21:42:22.662Z,68.00
2023-08-23T21:44:54.966Z,68.10
2023-08-23T21:47:28.786Z,68.30
2023-08-23T21:50:01.223Z,68.60
2023-08-23T21:52:36.074Z,68.90
2023-08-23T21:55:09.106Z,68.90
2023-08-23T21:57:41.217Z,69.20
2023-08-23T22:00:15.266Z,69.70
2023-08-23T22:02:47.536Z,70.00
2023-08-23T22:05:19.996Z,70.20
2023-08-23T22:07:54.795Z,70.20
2023-08-23T22:10:27.032Z,70.30
2023-08-23T22:12:59.208Z,70.30
2023-08-23T22:15:31.410Z,70.40
2023-08-23T22:18:05.910Z,70.70
2023-08-23T22:20:38.098Z,70.90
2023-08-23T22:23:13.114Z,71.00
2023-08-23T22:25:45.777Z,71.20
2023-08-23T22:28:17.968Z,71.50
2023-08-23T22:30:50.153Z,71.60
2023-08-23T22:33:22.463Z,71.70
2023-08-23T22:35:56.117Z,71.60
2023-08-23T22:38:31.151Z,71.80
2023-08-23T22:41:05.985Z,72.10
2023-08-23T22:43:38.816Z,72.20
2023-08-23T22:46:21.813Z,72.30
2023-08-23T22:49:02.420Z,72.30
2023-08-23T22:51:34.621Z,72.30
2023-08-23T22:54:10.487Z,72.20
2023-08-23T22:56:42.737Z,72.50
2023-08-23T22:59:15.252Z,72.60
2023-08-23T23:01:47.538Z,72.60
2023-08-23T23:04:20.092Z,72.80
2023-08-23T23:06:52.210Z,73.00
2023-08-23T23:09:27.075Z,73.30
2023-08-23T23:11:59.289Z,73.50
2023-08-23T23:14:31.476Z,73.90
2023-08-23T23:17:03.669Z,74.10
2023-08-23T23:19:35.861Z,74.40
2023-08-23T23:22:08.025Z,74.60
2023-08-23T23:24:43.043Z,74.90
2023-08-23T23:27:17.091Z,75.00
2023-08-23T23:29:49.628Z,75.20
2023-08-23T23:32:22.124Z,75.50
2023-08-23T23:34:54.524Z,75.80
2023-08-23T23:37:26.834Z,75.90
2023-08-23T23:40:01.850Z,76.00
2023-08-23T23:42:34.096Z,76.10
2023-08-23T23:45:07.405Z,76.30
2023-08-23T23:47:42.459Z,76.40
2023-08-23T23:50:15.804Z,76.40
2023-08-23T23:52:47.988Z,76.40
2023-08-23T23:55:22.994Z,76.30
2023-08-23T23:57:56.155Z,76.30
